Terminal Aerodrome Forecast
Issued by NWS Jacksonville, FL

Home | Current Version | Previous Version | Text Only | Print | Product List | Glossary On
Versions: 1 2 3 4 5 6 7 8 9 10 11 12 13 14 15 16 17 18
000
FTUS42 KJAX 270520
TAFGNV
TAF
KGNV 270520Z 2706/2806 28006KT P6SM SKC WS015/30035KT
     FM271400 27010G18KT P6SM FEW045
     FM271800 28013G23KT P6SM SCT040
     FM272300 30006KT P6SM SCT050=

USA.gov is the U.S. government's official web portal to all federal, state and local government web resources and services.